sensor_id;sensor_type;location;lat;lon;timestamp;P1;durP1;ratioP1;P2;durP2;ratioP2
36829;SDS011;22767;47.328;9.640;2023-02-11T00:00:14;7.47;;;4.18;;
36829;SDS011;22767;47.328;9.640;2023-02-11T00:02:41;9.40;;;4.22;;
36829;SDS011;22767;47.328;9.640;2023-02-11T00:05:08;8.10;;;4.45;;
36829;SDS011;22767;47.328;9.640;2023-02-11T00:07:34;7.78;;;4.47;;
36829;SDS011;22767;47.328;9.640;2023-02-11T00:10:00;6.32;;;4.30;;
36829;SDS011;22767;47.328;9.640;2023-02-11T00:12:27;6.97;;;4.45;;
36829;SDS011;22767;47.328;9.640;2023-02-11T00:14:53;9.73;;;4.65;;
36829;SDS011;22767;47.328;9.640;2023-02-11T00:17:19;7.07;;;4.35;;
36829;SDS011;22767;47.328;9.640;2023-02-11T00:19:49;6.53;;;4.97;;
36829;SDS011;22767;47.328;9.640;2023-02-11T00:22:15;6.93;;;4.32;;
36829;SDS011;22767;47.328;9.640;2023-02-11T00:24:41;7.35;;;4.55;;
36829;SDS011;22767;47.328;9.640;2023-02-11T00:27:08;9.20;;;4.60;;
36829;SDS011;22767;47.328;9.640;2023-02-11T00:29:34;8.50;;;4.72;;
36829;SDS011;22767;47.328;9.640;2023-02-11T00:32:01;8.13;;;5.05;;
36829;SDS011;22767;47.328;9.640;2023-02-11T00:34:29;8.25;;;4.57;;
36829;SDS011;22767;47.328;9.640;2023-02-11T00:36:56;8.68;;;4.78;;
36829;SDS011;22767;47.328;9.640;2023-02-11T00:39:22;7.78;;;4.60;;
36829;SDS011;22767;47.328;9.640;2023-02-11T00:41:48;6.15;;;4.28;;
36829;SDS011;22767;47.328;9.640;2023-02-11T00:44:14;7.75;;;4.20;;
36829;SDS011;22767;47.328;9.640;2023-02-11T00:46:40;7.40;;;4.07;;
36829;SDS011;22767;47.328;9.640;2023-02-11T00:49:07;6.00;;;3.75;;
36829;SDS011;22767;47.328;9.640;2023-02-11T00:51:33;7.05;;;4.03;;
36829;SDS011;22767;47.328;9.640;2023-02-11T00:54:02;7.05;;;4.30;;
36829;SDS011;22767;47.328;9.640;2023-02-11T00:56:29;7.63;;;3.90;;
36829;SDS011;22767;47.328;9.640;2023-02-11T00:58:55;4.78;;;3.60;;
36829;SDS011;22767;47.328;9.640;2023-02-11T01:01:21;5.50;;;3.50;;
36829;SDS011;22767;47.328;9.640;2023-02-11T01:03:47;6.80;;;3.50;;
36829;SDS011;22767;47.328;9.640;2023-02-11T01:06:14;6.50;;;3.53;;
36829;SDS011;22767;47.328;9.640;2023-02-11T01:08:40;5.10;;;3.63;;
36829;SDS011;22767;47.328;9.640;2023-02-11T01:11:09;5.10;;;3.40;;
36829;SDS011;22767;47.328;9.640;2023-02-11T01:13:38;6.97;;;3.63;;
36829;SDS011;22767;47.328;9.640;2023-02-11T01:16:07;5.18;;;3.53;;
36829;SDS011;22767;47.328;9.640;2023-02-11T01:18:34;5.90;;;3.58;;
36829;SDS011;22767;47.328;9.640;2023-02-11T01:21:00;7.32;;;3.80;;
36829;SDS011;22767;47.328;9.640;2023-02-11T01:23:26;6.13;;;3.72;;
36829;SDS011;22767;47.328;9.640;2023-02-11T01:25:53;7.68;;;3.70;;
36829;SDS011;22767;47.328;9.640;2023-02-11T01:28:20;6.80;;;3.58;;
36829;SDS011;22767;47.328;9.640;2023-02-11T01:30:46;8.43;;;3.90;;
36829;SDS011;22767;47.328;9.640;2023-02-11T01:33:13;5.43;;;2.90;;
36829;SDS011;22767;47.328;9.640;2023-02-11T01:35:40;7.65;;;3.15;;
36829;SDS011;22767;47.328;9.640;2023-02-11T01:38:06;5.10;;;2.90;;
36829;SDS011;22767;47.328;9.640;2023-02-11T01:40:33;3.38;;;2.25;;
36829;SDS011;22767;47.328;9.640;2023-02-11T01:42:59;3.83;;;2.88;;
36829;SDS011;22767;47.328;9.640;2023-02-11T01:48:07;5.07;;;2.50;;
36829;SDS011;22767;47.328;9.640;2023-02-11T01:50:35;4.43;;;2.40;;
36829;SDS011;22767;47.328;9.640;2023-02-11T01:53:02;3.65;;;2.08;;
36829;SDS011;22767;47.328;9.640;2023-02-11T01:55:48;3.90;;;2.08;;
36829;SDS011;22767;47.328;9.640;2023-02-11T01:58:34;4.15;;;2.50;;
36829;SDS011;22767;47.328;9.640;2023-02-11T02:01:01;3.90;;;2.83;;
36829;SDS011;22767;47.328;9.640;2023-02-11T02:03:29;3.13;;;2.13;;
36829;SDS011;22767;47.328;9.640;2023-02-11T02:05:59;3.25;;;2.20;;
36829;SDS011;22767;47.328;9.640;2023-02-11T02:10:56;6.93;;;3.13;;
36829;SDS011;22767;47.328;9.640;2023-02-11T02:13:25;4.65;;;3.10;;
36829;SDS011;22767;47.328;9.640;2023-02-11T02:15:55;5.05;;;2.75;;
36829;SDS011;22767;47.328;9.640;2023-02-11T02:18:27;7.93;;;2.90;;
36829;SDS011;22767;47.328;9.640;2023-02-11T02:33:56;3.85;;;3.03;;
36829;SDS011;22767;47.328;9.640;2023-02-11T02:39:28;3.58;;;2.78;;
36829;SDS011;22767;47.328;9.640;2023-02-11T02:41:56;4.82;;;2.30;;
36829;SDS011;22767;47.328;9.640;2023-02-11T02:44:23;3.95;;;2.47;;
36829;SDS011;22767;47.328;9.640;2023-02-11T02:46:49;3.15;;;2.05;;
36829;SDS011;22767;47.328;9.640;2023-02-11T02:49:16;3.40;;;2.30;;
36829;SDS011;22767;47.328;9.640;2023-02-11T02:55:01;3.90;;;2.55;;
36829;SDS011;22767;47.328;9.640;2023-02-11T02:57:15;3.65;;;2.38;;
36829;SDS011;22767;47.328;9.640;2023-02-11T03:02:37;4.60;;;2.90;;
36829;SDS011;22767;47.328;9.640;2023-02-11T03:05:09;6.88;;;3.88;;
36829;SDS011;22767;47.328;9.640;2023-02-11T03:10:12;5.90;;;2.72;;
36829;SDS011;22767;47.328;9.640;2023-02-11T03:12:39;8.32;;;3.50;;
36829;SDS011;22767;47.328;9.640;2023-02-11T03:15:08;5.80;;;3.10;;
36829;SDS011;22767;47.328;9.640;2023-02-11T03:17:35;7.07;;;4.15;;
36829;SDS011;22767;47.328;9.640;2023-02-11T03:20:08;8.07;;;4.07;;
36829;SDS011;22767;47.328;9.640;2023-02-11T03:22:37;7.50;;;4.28;;
36829;SDS011;22767;47.328;9.640;2023-02-11T03:25:05;6.10;;;3.72;;
36829;SDS011;22767;47.328;9.640;2023-02-11T03:27:33;4.90;;;2.92;;
36829;SDS011;22767;47.328;9.640;2023-02-11T03:30:17;6.18;;;3.30;;
36829;SDS011;22767;47.328;9.640;2023-02-11T03:32:48;6.88;;;4.40;;
36829;SDS011;22767;47.328;9.640;2023-02-11T03:35:28;8.50;;;4.40;;
36829;SDS011;22767;47.328;9.640;2023-02-11T03:40:30;5.55;;;3.72;;
36829;SDS011;22767;47.328;9.640;2023-02-11T03:42:59;5.95;;;3.92;;
36829;SDS011;22767;47.328;9.640;2023-02-11T03:45:26;7.45;;;4.00;;
36829;SDS011;22767;47.328;9.640;2023-02-11T03:47:54;6.45;;;4.15;;
36829;SDS011;22767;47.328;9.640;2023-02-11T03:50:22;6.75;;;3.92;;
36829;SDS011;22767;47.328;9.640;2023-02-11T03:52:49;5.85;;;3.78;;
36829;SDS011;22767;47.328;9.640;2023-02-11T03:55:17;6.22;;;3.42;;
36829;SDS011;22767;47.328;9.640;2023-02-11T03:57:44;7.55;;;4.75;;
36829;SDS011;22767;47.328;9.640;2023-02-11T04:00:10;6.70;;;3.90;;
36829;SDS011;22767;47.328;9.640;2023-02-11T04:02:37;6.97;;;3.58;;
36829;SDS011;22767;47.328;9.640;2023-02-11T04:05:04;4.82;;;3.70;;
36829;SDS011;22767;47.328;9.640;2023-02-11T04:07:31;6.57;;;3.72;;
36829;SDS011;22767;47.328;9.640;2023-02-11T04:09:57;5.85;;;3.55;;
36829;SDS011;22767;47.328;9.640;2023-02-11T04:12:23;8.63;;;3.47;;
36829;SDS011;22767;47.328;9.640;2023-02-11T04:14:50;5.85;;;3.85;;
36829;SDS011;22767;47.328;9.640;2023-02-11T04:17:17;5.38;;;3.65;;
36829;SDS011;22767;47.328;9.640;2023-02-11T04:19:43;6.25;;;4.45;;
36829;SDS011;22767;47.328;9.640;2023-02-11T04:22:09;9.80;;;5.57;;
36829;SDS011;22767;47.328;9.640;2023-02-11T04:24:35;13.20;;;5.13;;
36829;SDS011;22767;47.328;9.640;2023-02-11T04:27:02;8.93;;;4.60;;
36829;SDS011;22767;47.328;9.640;2023-02-11T04:29:28;6.93;;;4.57;;
36829;SDS011;22767;47.328;9.640;2023-02-11T04:31:54;12.35;;;7.15;;
36829;SDS011;22767;47.328;9.640;2023-02-11T04:34:20;10.00;;;5.43;;
36829;SDS011;22767;47.328;9.640;2023-02-11T04:36:47;9.52;;;6.07;;
36829;SDS011;22767;47.328;9.640;2023-02-11T04:39:13;9.52;;;5.40;;
36829;SDS011;22767;47.328;9.640;2023-02-11T04:41:42;9.50;;;5.15;;
36829;SDS011;22767;47.328;9.640;2023-02-11T04:44:08;7.68;;;4.82;;
36829;SDS011;22767;47.328;9.640;2023-02-11T04:46:35;6.13;;;3.97;;
36829;SDS011;22767;47.328;9.640;2023-02-11T04:49:01;7.30;;;4.43;;
36829;SDS011;22767;47.328;9.640;2023-02-11T04:51:27;9.00;;;5.00;;
36829;SDS011;22767;47.328;9.640;2023-02-11T04:53:54;8.80;;;4.50;;
36829;SDS011;22767;47.328;9.640;2023-02-11T04:56:20;10.40;;;5.43;;
36829;SDS011;22767;47.328;9.640;2023-02-11T04:58:46;9.75;;;4.97;;
36829;SDS011;22767;47.328;9.640;2023-02-11T05:01:12;8.07;;;5.20;;
36829;SDS011;22767;47.328;9.640;2023-02-11T05:03:39;8.02;;;5.03;;
36829;SDS011;22767;47.328;9.640;2023-02-11T05:06:05;8.18;;;4.82;;
36829;SDS011;22767;47.328;9.640;2023-02-11T05:08:32;9.38;;;4.95;;
36829;SDS011;22767;47.328;9.640;2023-02-11T05:10:59;8.77;;;5.30;;
36829;SDS011;22767;47.328;9.640;2023-02-11T05:13:26;10.18;;;5.15;;
36829;SDS011;22767;47.328;9.640;2023-02-11T05:15:53;9.27;;;5.28;;
36829;SDS011;22767;47.328;9.640;2023-02-11T05:18:20;10.13;;;5.72;;
36829;SDS011;22767;47.328;9.640;2023-02-11T05:20:46;10.43;;;5.75;;
36829;SDS011;22767;47.328;9.640;2023-02-11T05:23:12;10.38;;;5.47;;
36829;SDS011;22767;47.328;9.640;2023-02-11T05:25:38;8.55;;;5.65;;
36829;SDS011;22767;47.328;9.640;2023-02-11T05:28:05;8.73;;;6.15;;
36829;SDS011;22767;47.328;9.640;2023-02-11T05:30:31;8.55;;;6.00;;
36829;SDS011;22767;47.328;9.640;2023-02-11T05:32:57;10.85;;;5.25;;
36829;SDS011;22767;47.328;9.640;2023-02-11T05:35:24;9.43;;;6.03;;
36829;SDS011;22767;47.328;9.640;2023-02-11T05:37:50;9.95;;;5.53;;
36829;SDS011;22767;47.328;9.640;2023-02-11T05:40:16;10.07;;;5.50;;
36829;SDS011;22767;47.328;9.640;2023-02-11T05:42:43;7.25;;;4.90;;
36829;SDS011;22767;47.328;9.640;2023-02-11T05:45:09;7.78;;;5.75;;
36829;SDS011;22767;47.328;9.640;2023-02-11T05:47:35;9.15;;;5.75;;
36829;SDS011;22767;47.328;9.640;2023-02-11T05:50:01;9.73;;;6.03;;
36829;SDS011;22767;47.328;9.640;2023-02-11T05:52:27;10.10;;;6.55;;
36829;SDS011;22767;47.328;9.640;2023-02-11T05:54:53;11.40;;;6.25;;
36829;SDS011;22767;47.328;9.640;2023-02-11T05:57:19;9.68;;;5.90;;
36829;SDS011;22767;47.328;9.640;2023-02-11T05:59:46;11.65;;;6.22;;
36829;SDS011;22767;47.328;9.640;2023-02-11T06:02:12;9.07;;;6.28;;
36829;SDS011;22767;47.328;9.640;2023-02-11T06:04:38;12.65;;;8.05;;
36829;SDS011;22767;47.328;9.640;2023-02-11T06:07:04;11.13;;;6.72;;
36829;SDS011;22767;47.328;9.640;2023-02-11T06:09:30;11.52;;;7.03;;
36829;SDS011;22767;47.328;9.640;2023-02-11T06:11:56;11.68;;;7.70;;
36829;SDS011;22767;47.328;9.640;2023-02-11T06:14:22;14.43;;;9.45;;
36829;SDS011;22767;47.328;9.640;2023-02-11T06:16:49;13.27;;;8.90;;
36829;SDS011;22767;47.328;9.640;2023-02-11T06:19:15;13.18;;;9.18;;
36829;SDS011;22767;47.328;9.640;2023-02-11T06:21:41;13.85;;;9.85;;
36829;SDS011;22767;47.328;9.640;2023-02-11T06:24:07;15.43;;;9.15;;
36829;SDS011;22767;47.328;9.640;2023-02-11T06:26:33;13.75;;;9.30;;
36829;SDS011;22767;47.328;9.640;2023-02-11T06:28:59;15.57;;;10.48;;
36829;SDS011;22767;47.328;9.640;2023-02-11T06:31:26;12.93;;;7.63;;
36829;SDS011;22767;47.328;9.640;2023-02-11T06:33:52;12.13;;;7.75;;
36829;SDS011;22767;47.328;9.640;2023-02-11T06:36:19;13.73;;;8.93;;
36829;SDS011;22767;47.328;9.640;2023-02-11T06:38:46;13.68;;;8.20;;
36829;SDS011;22767;47.328;9.640;2023-02-11T06:41:13;14.98;;;9.02;;
36829;SDS011;22767;47.328;9.640;2023-02-11T06:43:40;16.17;;;7.93;;
36829;SDS011;22767;47.328;9.640;2023-02-11T06:46:06;12.90;;;7.60;;
36829;SDS011;22767;47.328;9.640;2023-02-11T06:48:33;14.13;;;7.75;;
36829;SDS011;22767;47.328;9.640;2023-02-11T06:51:03;17.15;;;9.13;;
36829;SDS011;22767;47.328;9.640;2023-02-11T06:53:30;14.10;;;8.50;;
36829;SDS011;22767;47.328;9.640;2023-02-11T06:56:00;15.27;;;7.97;;
36829;SDS011;22767;47.328;9.640;2023-02-11T06:58:27;16.90;;;8.07;;
36829;SDS011;22767;47.328;9.640;2023-02-11T07:00:53;14.07;;;7.75;;
36829;SDS011;22767;47.328;9.640;2023-02-11T07:03:19;14.30;;;7.97;;
36829;SDS011;22767;47.328;9.640;2023-02-11T07:05:45;50.80;;;18.63;;
36829;SDS011;22767;47.328;9.640;2023-02-11T07:08:11;14.90;;;9.23;;
36829;SDS011;22767;47.328;9.640;2023-02-11T07:10:37;15.52;;;9.95;;
36829;SDS011;22767;47.328;9.640;2023-02-11T07:13:03;18.35;;;10.95;;
36829;SDS011;22767;47.328;9.640;2023-02-11T07:15:31;20.77;;;11.25;;
36829;SDS011;22767;47.328;9.640;2023-02-11T07:17:57;15.27;;;10.48;;
36829;SDS011;22767;47.328;9.640;2023-02-11T07:20:24;13.85;;;8.13;;
36829;SDS011;22767;47.328;9.640;2023-02-11T07:22:50;19.95;;;13.77;;
36829;SDS011;22767;47.328;9.640;2023-02-11T07:25:16;20.02;;;12.93;;
36829;SDS011;22767;47.328;9.640;2023-02-11T07:27:42;14.55;;;9.75;;
36829;SDS011;22767;47.328;9.640;2023-02-11T07:30:09;18.98;;;9.73;;
36829;SDS011;22767;47.328;9.640;2023-02-11T07:32:36;20.65;;;10.18;;
36829;SDS011;22767;47.328;9.640;2023-02-11T07:35:02;21.33;;;11.23;;
36829;SDS011;22767;47.328;9.640;2023-02-11T07:37:29;23.92;;;11.38;;
36829;SDS011;22767;47.328;9.640;2023-02-11T07:39:58;22.45;;;12.35;;
36829;SDS011;22767;47.328;9.640;2023-02-11T07:42:24;25.92;;;11.25;;
36829;SDS011;22767;47.328;9.640;2023-02-11T07:44:50;21.35;;;10.95;;
36829;SDS011;22767;47.328;9.640;2023-02-11T07:47:16;19.70;;;9.85;;
36829;SDS011;22767;47.328;9.640;2023-02-11T07:49:42;14.98;;;7.43;;
36829;SDS011;22767;47.328;9.640;2023-02-11T07:52:08;12.55;;;7.47;;
36829;SDS011;22767;47.328;9.640;2023-02-11T07:54:34;13.27;;;6.32;;
36829;SDS011;22767;47.328;9.640;2023-02-11T07:57:01;10.68;;;5.38;;
36829;SDS011;22767;47.328;9.640;2023-02-11T07:59:27;8.57;;;4.38;;
36829;SDS011;22767;47.328;9.640;2023-02-11T08:01:53;9.25;;;4.40;;
36829;SDS011;22767;47.328;9.640;2023-02-11T08:04:19;8.20;;;3.63;;
36829;SDS011;22767;47.328;9.640;2023-02-11T08:06:45;17.83;;;9.07;;
36829;SDS011;22767;47.328;9.640;2023-02-11T08:09:13;8.93;;;4.30;;
36829;SDS011;22767;47.328;9.640;2023-02-11T08:11:40;10.65;;;5.38;;
36829;SDS011;22767;47.328;9.640;2023-02-11T08:14:07;14.88;;;6.13;;
36829;SDS011;22767;47.328;9.640;2023-02-11T08:16:33;12.23;;;7.30;;
36829;SDS011;22767;47.328;9.640;2023-02-11T08:19:04;8.48;;;5.43;;
36829;SDS011;22767;47.328;9.640;2023-02-11T08:21:32;8.57;;;5.20;;
36829;SDS011;22767;47.328;9.640;2023-02-11T08:23:59;10.27;;;5.90;;
36829;SDS011;22767;47.328;9.640;2023-02-11T08:26:27;9.15;;;5.00;;
36829;SDS011;22767;47.328;9.640;2023-02-11T08:28:53;9.73;;;5.32;;
36829;SDS011;22767;47.328;9.640;2023-02-11T08:31:21;10.43;;;5.28;;
36829;SDS011;22767;47.328;9.640;2023-02-11T08:33:48;10.63;;;5.47;;
36829;SDS011;22767;47.328;9.640;2023-02-11T08:36:15;9.77;;;5.22;;
36829;SDS011;22767;47.328;9.640;2023-02-11T08:38:42;9.80;;;5.15;;
36829;SDS011;22767;47.328;9.640;2023-02-11T08:41:08;14.88;;;5.65;;
36829;SDS011;22767;47.328;9.640;2023-02-11T08:43:35;14.23;;;5.63;;
36829;SDS011;22767;47.328;9.640;2023-02-11T08:46:06;12.25;;;4.82;;
36829;SDS011;22767;47.328;9.640;2023-02-11T08:48:32;10.02;;;4.63;;
36829;SDS011;22767;47.328;9.640;2023-02-11T08:50:58;9.13;;;4.90;;
36829;SDS011;22767;47.328;9.640;2023-02-11T08:53:25;8.18;;;4.40;;
36829;SDS011;22767;47.328;9.640;2023-02-11T08:55:52;9.15;;;4.60;;
36829;SDS011;22767;47.328;9.640;2023-02-11T08:58:19;9.55;;;5.35;;
36829;SDS011;22767;47.328;9.640;2023-02-11T09:00:45;13.85;;;6.10;;
36829;SDS011;22767;47.328;9.640;2023-02-11T09:03:12;12.95;;;6.40;;
36829;SDS011;22767;47.328;9.640;2023-02-11T09:05:42;9.52;;;6.50;;
36829;SDS011;22767;47.328;9.640;2023-02-11T09:08:09;14.30;;;6.78;;
36829;SDS011;22767;47.328;9.640;2023-02-11T09:10:35;13.10;;;6.93;;
36829;SDS011;22767;47.328;9.640;2023-02-11T09:13:01;15.25;;;7.03;;
36829;SDS011;22767;47.328;9.640;2023-02-11T09:15:28;14.18;;;7.65;;
36829;SDS011;22767;47.328;9.640;2023-02-11T09:17:57;16.95;;;7.05;;
36829;SDS011;22767;47.328;9.640;2023-02-11T09:20:23;14.20;;;6.53;;
36829;SDS011;22767;47.328;9.640;2023-02-11T09:22:51;15.43;;;6.65;;
36829;SDS011;22767;47.328;9.640;2023-02-11T09:25:17;13.63;;;7.45;;
36829;SDS011;22767;47.328;9.640;2023-02-11T09:27:44;14.40;;;7.32;;
36829;SDS011;22767;47.328;9.640;2023-02-11T09:30:10;14.85;;;7.55;;
36829;SDS011;22767;47.328;9.640;2023-02-11T09:32:36;14.45;;;7.82;;
36829;SDS011;22767;47.328;9.640;2023-02-11T09:35:02;17.48;;;8.23;;
36829;SDS011;22767;47.328;9.640;2023-02-11T09:37:28;18.13;;;8.50;;
36829;SDS011;22767;47.328;9.640;2023-02-11T09:39:55;20.60;;;9.38;;
36829;SDS011;22767;47.328;9.640;2023-02-11T09:44:59;12.50;;;7.82;;
36829;SDS011;22767;47.328;9.640;2023-02-11T09:47:31;15.32;;;8.32;;
36829;SDS011;22767;47.328;9.640;2023-02-11T09:49:59;14.45;;;7.53;;
36829;SDS011;22767;47.328;9.640;2023-02-11T09:52:29;12.90;;;7.47;;
36829;SDS011;22767;47.328;9.640;2023-02-11T09:54:59;16.15;;;7.43;;
36829;SDS011;22767;47.328;9.640;2023-02-11T09:57:27;13.00;;;7.82;;
36829;SDS011;22767;47.328;9.640;2023-02-11T09:59:55;13.20;;;7.70;;
36829;SDS011;22767;47.328;9.640;2023-02-11T10:02:31;20.35;;;8.40;;
36829;SDS011;22767;47.328;9.640;2023-02-11T10:05:08;19.48;;;8.63;;
36829;SDS011;22767;47.328;9.640;2023-02-11T10:10:12;15.90;;;8.43;;
36829;SDS011;22767;47.328;9.640;2023-02-11T10:23:16;15.45;;;8.73;;
36829;SDS011;22767;47.328;9.640;2023-02-11T10:25:45;13.35;;;8.40;;
36829;SDS011;22767;47.328;9.640;2023-02-11T10:28:13;17.75;;;9.35;;
36829;SDS011;22767;47.328;9.640;2023-02-11T10:30:45;20.58;;;9.82;;
36829;SDS011;22767;47.328;9.640;2023-02-11T10:36:03;26.05;;;10.70;;
36829;SDS011;22767;47.328;9.640;2023-02-11T10:38:29;16.58;;;10.20;;
36829;SDS011;22767;47.328;9.640;2023-02-11T10:40:58;20.75;;;10.10;;
36829;SDS011;22767;47.328;9.640;2023-02-11T10:43:25;25.15;;;10.35;;
36829;SDS011;22767;47.328;9.640;2023-02-11T10:45:54;16.23;;;10.63;;
36829;SDS011;22767;47.328;9.640;2023-02-11T10:53:39;18.05;;;9.40;;
36829;SDS011;22767;47.328;9.640;2023-02-11T10:56:09;21.33;;;8.85;;
36829;SDS011;22767;47.328;9.640;2023-02-11T10:58:43;16.83;;;9.05;;
36829;SDS011;22767;47.328;9.640;2023-02-11T11:01:10;16.25;;;8.73;;
36829;SDS011;22767;47.328;9.640;2023-02-11T11:03:46;15.05;;;8.52;;
36829;SDS011;22767;47.328;9.640;2023-02-11T11:06:14;15.75;;;8.00;;
36829;SDS011;22767;47.328;9.640;2023-02-11T11:08:43;12.43;;;8.63;;
36829;SDS011;22767;47.328;9.640;2023-02-11T11:11:12;14.60;;;8.15;;
36829;SDS011;22767;47.328;9.640;2023-02-11T11:13:39;12.75;;;8.00;;
36829;SDS011;22767;47.328;9.640;2023-02-11T11:18:39;14.25;;;8.70;;
36829;SDS011;22767;47.328;9.640;2023-02-11T11:23:47;15.77;;;9.52;;
36829;SDS011;22767;47.328;9.640;2023-02-11T11:26:15;20.83;;;9.70;;
36829;SDS011;22767;47.328;9.640;2023-02-11T11:31:13;14.13;;;8.02;;
36829;SDS011;22767;47.328;9.640;2023-02-11T11:33:42;14.18;;;7.78;;
36829;SDS011;22767;47.328;9.640;2023-02-11T11:36:14;14.75;;;7.45;;
36829;SDS011;22767;47.328;9.640;2023-02-11T11:43:54;15.05;;;6.97;;
36829;SDS011;22767;47.328;9.640;2023-02-11T11:46:26;15.50;;;7.25;;
36829;SDS011;22767;47.328;9.640;2023-02-11T11:48:54;11.13;;;6.30;;
36829;SDS011;22767;47.328;9.640;2023-02-11T11:51:21;12.70;;;6.78;;
36829;SDS011;22767;47.328;9.640;2023-02-11T11:53:55;15.30;;;7.20;;
36829;SDS011;22767;47.328;9.640;2023-02-11T11:56:29;15.05;;;6.85;;
36829;SDS011;22767;47.328;9.640;2023-02-11T11:59:02;14.40;;;6.75;;
36829;SDS011;22767;47.328;9.640;2023-02-11T12:01:48;17.05;;;7.43;;
36829;SDS011;22767;47.328;9.640;2023-02-11T12:12:10;13.70;;;7.35;;
36829;SDS011;22767;47.328;9.640;2023-02-11T12:14:58;14.00;;;7.32;;
36829;SDS011;22767;47.328;9.640;2023-02-11T12:22:57;13.55;;;7.75;;
36829;SDS011;22767;47.328;9.640;2023-02-11T12:25:33;11.45;;;7.38;;
36829;SDS011;22767;47.328;9.640;2023-02-11T12:28:37;18.50;;;8.63;;
36829;SDS011;22767;47.328;9.640;2023-02-11T12:36:37;13.38;;;7.60;;
36829;SDS011;22767;47.328;9.640;2023-02-11T12:47:43;16.02;;;8.50;;
36829;SDS011;22767;47.328;9.640;2023-02-11T12:55:25;13.50;;;7.70;;
36829;SDS011;22767;47.328;9.640;2023-02-11T12:57:54;14.65;;;8.05;;
36829;SDS011;22767;47.328;9.640;2023-02-11T13:05:39;18.58;;;8.90;;
36829;SDS011;22767;47.328;9.640;2023-02-11T13:10:37;21.50;;;8.77;;
36829;SDS011;22767;47.328;9.640;2023-02-11T13:13:41;17.65;;;9.68;;
36829;SDS011;22767;47.328;9.640;2023-02-11T13:15:58;15.93;;;9.32;;
36829;SDS011;22767;47.328;9.640;2023-02-11T13:21:20;18.88;;;10.23;;
36829;SDS011;22767;47.328;9.640;2023-02-11T13:23:54;16.47;;;9.83;;
36829;SDS011;22767;47.328;9.640;2023-02-11T13:26:37;19.45;;;11.10;;
36829;SDS011;22767;47.328;9.640;2023-02-11T13:32:04;20.08;;;11.38;;
36829;SDS011;22767;47.328;9.640;2023-02-11T13:37:03;20.85;;;12.65;;
36829;SDS011;22767;47.328;9.640;2023-02-11T13:39:31;17.85;;;11.27;;
36829;SDS011;22767;47.328;9.640;2023-02-11T13:42:01;20.40;;;11.77;;
36829;SDS011;22767;47.328;9.640;2023-02-11T13:44:27;23.30;;;12.95;;
36829;SDS011;22767;47.328;9.640;2023-02-11T13:47:00;18.77;;;12.52;;
36829;SDS011;22767;47.328;9.640;2023-02-11T13:51:56;17.55;;;12.02;;
36829;SDS011;22767;47.328;9.640;2023-02-11T13:54:25;24.48;;;12.35;;
36829;SDS011;22767;47.328;9.640;2023-02-11T14:02:08;20.50;;;13.57;;
36829;SDS011;22767;47.328;9.640;2023-02-11T14:10:59;21.42;;;13.40;;
36829;SDS011;22767;47.328;9.640;2023-02-11T14:18:56;22.83;;;13.90;;
36829;SDS011;22767;47.328;9.640;2023-02-11T14:21:36;20.85;;;13.30;;
36829;SDS011;22767;47.328;9.640;2023-02-11T14:29:11;19.40;;;13.20;;
36829;SDS011;22767;47.328;9.640;2023-02-11T14:31:44;19.15;;;12.38;;
36829;SDS011;22767;47.328;9.640;2023-02-11T14:37:03;20.65;;;13.50;;
36829;SDS011;22767;47.328;9.640;2023-02-11T14:39:39;23.23;;;13.98;;
36829;SDS011;22767;47.328;9.640;2023-02-11T14:42:17;24.25;;;15.10;;
36829;SDS011;22767;47.328;9.640;2023-02-11T14:44:45;22.50;;;14.10;;
36829;SDS011;22767;47.328;9.640;2023-02-11T14:47:16;22.55;;;13.93;;
36829;SDS011;22767;47.328;9.640;2023-02-11T14:49:42;21.65;;;14.05;;
36829;SDS011;22767;47.328;9.640;2023-02-11T14:52:15;28.10;;;15.40;;
36829;SDS011;22767;47.328;9.640;2023-02-11T14:54:44;21.85;;;14.95;;
36829;SDS011;22767;47.328;9.640;2023-02-11T14:57:16;20.30;;;13.88;;
36829;SDS011;22767;47.328;9.640;2023-02-11T14:59:56;21.50;;;14.30;;
36829;SDS011;22767;47.328;9.640;2023-02-11T15:02:36;23.30;;;14.45;;
36829;SDS011;22767;47.328;9.640;2023-02-11T15:08:01;20.33;;;14.05;;
36829;SDS011;22767;47.328;9.640;2023-02-11T15:12:56;22.98;;;14.60;;
36829;SDS011;22767;47.328;9.640;2023-02-11T15:15:23;21.05;;;14.23;;
36829;SDS011;22767;47.328;9.640;2023-02-11T15:17:50;25.88;;;15.05;;
36829;SDS011;22767;47.328;9.640;2023-02-11T15:20:21;25.80;;;15.15;;
36829;SDS011;22767;47.328;9.640;2023-02-11T15:22:50;22.40;;;14.65;;
36829;SDS011;22767;47.328;9.640;2023-02-11T15:25:19;23.70;;;15.30;;
36829;SDS011;22767;47.328;9.640;2023-02-11T15:27:52;23.98;;;15.68;;
36829;SDS011;22767;47.328;9.640;2023-02-11T15:32:47;25.08;;;16.40;;
36829;SDS011;22767;47.328;9.640;2023-02-11T15:35:15;24.85;;;15.68;;
36829;SDS011;22767;47.328;9.640;2023-02-11T15:37:42;23.20;;;15.25;;
36829;SDS011;22767;47.328;9.640;2023-02-11T15:40:16;24.73;;;15.00;;
36829;SDS011;22767;47.328;9.640;2023-02-11T15:45:20;23.95;;;15.95;;
36829;SDS011;22767;47.328;9.640;2023-02-11T15:48:10;22.70;;;15.43;;
36829;SDS011;22767;47.328;9.640;2023-02-11T15:50:38;23.73;;;15.02;;
36829;SDS011;22767;47.328;9.640;2023-02-11T15:53:25;25.95;;;15.30;;
36829;SDS011;22767;47.328;9.640;2023-02-11T15:56:39;22.60;;;15.43;;
36829;SDS011;22767;47.328;9.640;2023-02-11T15:58:41;26.52;;;15.07;;
36829;SDS011;22767;47.328;9.640;2023-02-11T16:01:08;21.45;;;14.30;;
36829;SDS011;22767;47.328;9.640;2023-02-11T16:03:37;23.25;;;14.68;;
36829;SDS011;22767;47.328;9.640;2023-02-11T16:06:20;25.63;;;14.80;;
36829;SDS011;22767;47.328;9.640;2023-02-11T16:08:55;26.10;;;15.10;;
36829;SDS011;22767;47.328;9.640;2023-02-11T16:11:35;21.63;;;13.68;;
36829;SDS011;22767;47.328;9.640;2023-02-11T16:16:48;21.52;;;14.48;;
36829;SDS011;22767;47.328;9.640;2023-02-11T16:19:19;21.10;;;14.18;;
36829;SDS011;22767;47.328;9.640;2023-02-11T16:21:46;23.77;;;13.75;;
36829;SDS011;22767;47.328;9.640;2023-02-11T16:24:16;22.33;;;13.75;;
36829;SDS011;22767;47.328;9.640;2023-02-11T16:26:49;20.23;;;13.73;;
36829;SDS011;22767;47.328;9.640;2023-02-11T16:29:24;22.92;;;14.40;;
36829;SDS011;22767;47.328;9.640;2023-02-11T16:31:51;21.90;;;14.32;;
36829;SDS011;22767;47.328;9.640;2023-02-11T16:34:22;23.27;;;14.63;;
36829;SDS011;22767;47.328;9.640;2023-02-11T16:36:51;24.00;;;14.98;;
36829;SDS011;22767;47.328;9.640;2023-02-11T16:39:18;22.23;;;15.82;;
36829;SDS011;22767;47.328;9.640;2023-02-11T16:41:54;25.67;;;14.80;;
36829;SDS011;22767;47.328;9.640;2023-02-11T16:44:21;24.60;;;15.77;;
36829;SDS011;22767;47.328;9.640;2023-02-11T16:46:48;21.38;;;14.55;;
36829;SDS011;22767;47.328;9.640;2023-02-11T16:51:49;26.75;;;15.18;;
36829;SDS011;22767;47.328;9.640;2023-02-11T16:54:18;24.25;;;14.80;;
36829;SDS011;22767;47.328;9.640;2023-02-11T16:56:45;20.80;;;13.43;;
36829;SDS011;22767;47.328;9.640;2023-02-11T16:59:11;21.77;;;13.55;;
36829;SDS011;22767;47.328;9.640;2023-02-11T17:01:38;21.70;;;14.48;;
36829;SDS011;22767;47.328;9.640;2023-02-11T17:04:05;20.48;;;13.15;;
36829;SDS011;22767;47.328;9.640;2023-02-11T17:06:32;20.85;;;12.55;;
36829;SDS011;22767;47.328;9.640;2023-02-11T17:08:59;21.60;;;13.40;;
36829;SDS011;22767;47.328;9.640;2023-02-11T17:11:26;20.05;;;12.25;;
36829;SDS011;22767;47.328;9.640;2023-02-11T17:13:53;23.05;;;13.63;;
36829;SDS011;22767;47.328;9.640;2023-02-11T17:16:21;22.33;;;13.25;;
36829;SDS011;22767;47.328;9.640;2023-02-11T17:18:49;20.05;;;13.57;;
36829;SDS011;22767;47.328;9.640;2023-02-11T17:21:17;20.73;;;13.00;;
36829;SDS011;22767;47.328;9.640;2023-02-11T17:23:44;20.90;;;13.75;;